createdAt,value
2022-08-28T00:00:14.887Z,14.47
2022-08-28T00:02:43.002Z,14.47
2022-08-28T00:05:11.653Z,14.50
2022-08-28T00:07:42.296Z,14.51
2022-08-28T00:10:14.573Z,14.51
2022-08-28T00:12:44.248Z,14.49
2022-08-28T00:15:14.190Z,14.47
2022-08-28T00:17:42.140Z,14.51
2022-08-28T00:20:11.443Z,14.47
2022-08-28T00:22:40.067Z,14.48
2022-08-28T00:25:09.531Z,14.57
2022-08-28T00:27:57.291Z,14.54
2022-08-28T00:30:30.033Z,14.50
2022-08-28T00:33:00.207Z,14.52
2022-08-28T00:35:27.939Z,14.52
2022-08-28T00:37:56.631Z,14.47
2022-08-28T00:40:28.659Z,14.48
2022-08-28T00:43:01.653Z,14.46
2022-08-28T00:45:36.005Z,14.44
2022-08-28T00:48:06.514Z,14.44
2022-08-28T00:50:50.456Z,14.50
2022-08-28T00:53:19.407Z,14.47
2022-08-28T00:55:46.863Z,14.45
2022-08-28T00:58:15.098Z,14.42
2022-08-28T01:00:44.063Z,14.44
2022-08-28T01:03:11.717Z,14.39
2022-08-28T01:05:43.406Z,14.37
2022-08-28T01:08:10.982Z,14.42
2022-08-28T01:10:41.487Z,14.46
2022-08-28T01:13:09.023Z,14.62
2022-08-28T01:15:39.091Z,14.75
2022-08-28T01:18:11.280Z,14.71
2022-08-28T01:20:44.636Z,14.73
2022-08-28T01:23:20.230Z,14.65
2022-08-28T01:25:49.058Z,14.80
2022-08-28T01:28:16.748Z,14.79
2022-08-28T01:30:48.374Z,14.80
2022-08-28T01:33:16.387Z,14.81
2022-08-28T01:35:48.419Z,14.76
2022-08-28T01:38:20.151Z,14.53
2022-08-28T01:40:54.270Z,14.49
2022-08-28T01:43:26.068Z,14.45
2022-08-28T01:45:56.207Z,14.47
2022-08-28T01:48:27.055Z,14.50
2022-08-28T01:50:54.698Z,14.65
2022-08-28T01:53:25.606Z,14.65
2022-08-28T01:56:04.490Z,14.57
2022-08-28T01:58:37.437Z,14.51
2022-08-28T02:01:09.530Z,14.62
2022-08-28T02:03:37.184Z,14.62
2022-08-28T02:06:05.123Z,14.62
2022-08-28T02:08:32.659Z,14.53
2022-08-28T02:11:01.480Z,14.49
2022-08-28T02:13:29.007Z,14.53
2022-08-28T02:15:57.890Z,14.51
2022-08-28T02:18:25.521Z,14.54
2022-08-28T02:20:53.165Z,14.38
2022-08-28T02:23:20.738Z,14.47
2022-08-28T02:25:48.406Z,14.36
2022-08-28T02:28:19.619Z,14.33
2022-08-28T02:30:47.202Z,14.33
2022-08-28T02:33:14.746Z,14.21
2022-08-28T02:35:42.968Z,14.06
2022-08-28T02:38:11.553Z,13.97
2022-08-28T02:40:41.951Z,13.95
2022-08-28T02:43:09.745Z,13.94
2022-08-28T02:45:38.543Z,13.92
2022-08-28T02:48:11.956Z,13.88
2022-08-28T02:50:46.102Z,13.81
2022-08-28T02:53:14.654Z,13.74
2022-08-28T02:55:42.126Z,13.71
2022-08-28T02:58:10.078Z,13.65
2022-08-28T03:00:38.952Z,13.52
2022-08-28T03:03:06.424Z,13.37
2022-08-28T03:05:33.928Z,13.31
2022-08-28T03:08:01.410Z,13.29
2022-08-28T03:10:28.927Z,13.25
2022-08-28T03:12:56.387Z,13.24
2022-08-28T03:15:23.849Z,13.28
2022-08-28T03:17:52.653Z,13.27
2022-08-28T03:20:20.487Z,13.08
2022-08-28T03:23:05.788Z,13.13
2022-08-28T03:25:33.262Z,13.06
2022-08-28T03:28:00.714Z,12.99
2022-08-28T03:30:28.235Z,13.00
2022-08-28T03:32:57.129Z,12.98
2022-08-28T03:35:24.571Z,13.01
2022-08-28T03:37:52.064Z,13.04
2022-08-28T03:40:20.237Z,13.04
2022-08-28T03:42:52.998Z,13.07
2022-08-28T03:45:22.146Z,13.04
2022-08-28T03:47:50.805Z,12.97
2022-08-28T03:50:19.993Z,12.97
2022-08-28T03:52:47.708Z,12.89
2022-08-28T03:55:15.704Z,12.90
2022-08-28T03:57:43.150Z,12.87
2022-08-28T04:00:14.047Z,12.84
2022-08-28T04:02:42.046Z,12.74
2022-08-28T04:05:10.983Z,12.69
2022-08-28T04:07:40.366Z,12.63
2022-08-28T04:10:09.043Z,12.62
2022-08-28T04:12:37.062Z,12.55
2022-08-28T04:15:07.065Z,12.57
2022-08-28T04:17:34.783Z,12.53
2022-08-28T04:20:02.254Z,12.41
2022-08-28T04:22:30.664Z,12.31
2022-08-28T04:24:59.489Z,12.33
2022-08-28T04:27:27.038Z,12.36
2022-08-28T04:29:54.522Z,12.28
2022-08-28T04:32:22.383Z,12.32
2022-08-28T04:34:49.863Z,12.25
2022-08-28T04:37:17.910Z,12.21
2022-08-28T04:39:45.414Z,12.22
2022-08-28T04:42:15.960Z,12.28
2022-08-28T04:44:43.474Z,12.23
2022-08-28T04:47:10.971Z,12.30
2022-08-28T04:49:38.771Z,12.27
2022-08-28T04:52:06.429Z,12.21
2022-08-28T04:54:34.799Z,12.27
2022-08-28T04:57:02.642Z,12.17
2022-08-28T04:59:35.846Z,12.17
2022-08-28T05:02:05.195Z,12.25
2022-08-28T05:04:32.716Z,12.28
2022-08-28T05:07:00.203Z,12.27
2022-08-28T05:09:27.701Z,12.21
2022-08-28T05:11:55.324Z,12.22
2022-08-28T05:14:22.811Z,12.23
2022-08-28T05:16:53.833Z,12.11
2022-08-28T05:19:21.880Z,12.23
2022-08-28T05:21:49.861Z,12.18
2022-08-28T05:24:17.952Z,12.18
2022-08-28T05:26:48.013Z,12.17
2022-08-28T05:29:16.653Z,12.32
2022-08-28T05:31:44.546Z,12.30
2022-08-28T05:34:16.266Z,12.24
2022-08-28T05:36:44.050Z,12.17
2022-08-28T05:39:13.353Z,12.16
2022-08-28T05:41:43.088Z,12.16
2022-08-28T05:44:12.798Z,12.18
2022-08-28T05:46:44.360Z,12.16
2022-08-28T05:49:13.025Z,12.21
2022-08-28T05:51:42.933Z,12.23
2022-08-28T05:54:11.725Z,12.29
2022-08-28T05:56:40.672Z,12.15
2022-08-28T05:59:08.991Z,12.36
2022-08-28T06:01:40.267Z,12.46
2022-08-28T06:04:09.667Z,12.33
2022-08-28T06:06:39.489Z,12.38
2022-08-28T06:09:11.737Z,12.37
2022-08-28T06:11:44.011Z,12.37
2022-08-28T06:14:15.773Z,12.54
2022-08-28T06:16:47.062Z,12.57
2022-08-28T06:19:15.190Z,12.78
2022-08-28T06:21:44.171Z,12.54
2022-08-28T06:24:13.359Z,12.47
2022-08-28T06:26:41.524Z,12.51
2022-08-28T06:29:11.408Z,12.59
2022-08-28T06:31:39.314Z,12.50
2022-08-28T06:34:07.612Z,12.70
2022-08-28T06:36:37.627Z,12.89
2022-08-28T06:39:06.899Z,12.98
2022-08-28T06:41:40.771Z,13.20
2022-08-28T06:44:08.771Z,13.18
2022-08-28T06:46:36.766Z,13.16
2022-08-28T06:49:07.855Z,13.01
2022-08-28T06:51:35.404Z,13.00
2022-08-28T06:54:03.093Z,13.34
2022-08-28T06:56:31.124Z,13.37
2022-08-28T06:59:00.689Z,13.55
2022-08-28T07:01:30.371Z,13.63
2022-08-28T07:04:00.983Z,13.61
2022-08-28T07:06:31.632Z,13.79
2022-08-28T07:08:59.123Z,13.72
2022-08-28T07:11:28.734Z,13.41
2022-08-28T07:13:57.069Z,13.30
2022-08-28T07:16:28.131Z,13.49
2022-08-28T07:18:55.615Z,13.30
2022-08-28T07:21:23.410Z,13.61
2022-08-28T07:23:51.142Z,13.68
2022-08-28T07:26:22.417Z,13.73
2022-08-28T07:28:50.344Z,13.86
2022-08-28T07:31:20.159Z,13.98
2022-08-28T07:33:53.871Z,13.87
2022-08-28T07:36:29.037Z,13.83
2022-08-28T07:38:58.986Z,13.85
2022-08-28T07:41:28.760Z,13.88
2022-08-28T07:44:13.799Z,14.29
2022-08-28T07:46:42.069Z,14.64
2022-08-28T07:49:11.580Z,14.88
2022-08-28T07:51:39.049Z,14.74
2022-08-28T07:54:06.690Z,14.82
2022-08-28T07:56:42.195Z,15.01
2022-08-28T07:59:11.995Z,14.95
2022-08-28T08:01:43.990Z,14.44
2022-08-28T08:04:15.711Z,14.47
2022-08-28T08:06:43.996Z,14.59
2022-08-28T08:09:14.500Z,14.85
2022-08-28T08:11:42.609Z,14.76
2022-08-28T08:14:10.055Z,14.98
2022-08-28T08:16:40.859Z,14.84
2022-08-28T08:19:10.316Z,14.76
2022-08-28T08:21:39.391Z,14.85
2022-08-28T08:24:07.788Z,15.24
2022-08-28T08:26:35.310Z,14.77
2022-08-28T08:29:02.894Z,14.84
2022-08-28T08:31:32.904Z,15.12
2022-08-28T08:34:03.453Z,15.04
2022-08-28T08:36:33.039Z,15.41
2022-08-28T08:39:06.427Z,15.03
2022-08-28T08:41:47.833Z,15.24
2022-08-28T08:44:33.331Z,15.11
2022-08-28T08:47:14.117Z,15.20
2022-08-28T08:49:48.238Z,15.53
2022-08-28T08:52:29.043Z,16.01
2022-08-28T08:55:08.736Z,16.20
2022-08-28T08:57:39.295Z,16.13
2022-08-28T09:00:15.069Z,16.44
2022-08-28T09:02:49.290Z,16.23
2022-08-28T09:05:21.387Z,16.29
2022-08-28T09:07:56.636Z,16.27
2022-08-28T09:10:32.836Z,16.48
2022-08-28T09:13:07.112Z,16.67
2022-08-28T09:15:40.466Z,17.04
2022-08-28T09:18:15.043Z,16.47
2022-08-28T09:20:42.958Z,16.83
2022-08-28T09:23:12.817Z,16.58
2022-08-28T09:25:52.243Z,16.75
2022-08-28T09:28:23.100Z,17.27
2022-08-28T09:30:58.924Z,17.25
2022-08-28T09:33:41.710Z,17.19
2022-08-28T09:36:29.909Z,17.24
2022-08-28T09:39:07.723Z,16.77
2022-08-28T09:41:58.832Z,17.05
2022-08-28T09:44:26.548Z,17.06
2022-08-28T09:46:54.258Z,17.15
2022-08-28T09:49:27.883Z,16.72
2022-08-28T09:51:56.294Z,16.77
2022-08-28T09:54:31.336Z,17.23
2022-08-28T09:57:00.951Z,16.99
2022-08-28T09:59:29.808Z,17.04
2022-08-28T10:02:11.252Z,17.15
2022-08-28T10:04:50.626Z,17.77
2022-08-28T10:07:26.744Z,17.66
2022-08-28T10:10:03.101Z,17.44
2022-08-28T10:12:59.331Z,17.73
2022-08-28T10:15:33.624Z,17.42
2022-08-28T10:18:28.826Z,17.20
2022-08-28T10:21:03.876Z,17.27
2022-08-28T10:23:42.710Z,17.27
2022-08-28T10:26:24.419Z,17.13
2022-08-28T10:29:03.815Z,17.40
2022-08-28T10:31:43.829Z,17.63
2022-08-28T10:34:27.542Z,17.84
2022-08-28T10:37:02.001Z,17.57
2022-08-28T10:39:40.212Z,17.24
2022-08-28T10:42:08.484Z,17.22
2022-08-28T10:44:45.020Z,17.25
2022-08-28T10:47:14.949Z,17.97
2022-08-28T10:49:45.082Z,18.07
2022-08-28T10:52:18.572Z,17.80
2022-08-28T10:54:51.479Z,17.79
2022-08-28T10:57:30.900Z,17.81
2022-08-28T11:00:04.059Z,17.87
2022-08-28T11:02:32.761Z,17.47
2022-08-28T11:05:00.386Z,17.74
2022-08-28T11:07:33.100Z,17.82
2022-08-28T11:10:23.527Z,18.08
2022-08-28T11:12:52.602Z,17.97
2022-08-28T11:15:45.415Z,17.94
2022-08-28T11:18:49.601Z,17.53
2022-08-28T11:21:24.972Z,17.99
2022-08-28T11:24:00.566Z,18.34
2022-08-28T11:26:36.423Z,18.14
2022-08-28T11:29:04.795Z,18.22
2022-08-28T11:31:42.413Z,18.16
2022-08-28T11:34:50.624Z,17.71
2022-08-28T11:37:43.550Z,18.51
2022-08-28T11:40:18.181Z,17.92
2022-08-28T11:42:48.616Z,18.60
2022-08-28T11:45:21.666Z,18.99
2022-08-28T11:47:57.641Z,18.73
2022-08-28T11:50:29.366Z,18.65
2022-08-28T11:53:25.856Z,18.40
2022-08-28T11:56:16.031Z,18.65
2022-08-28T11:59:08.087Z,18.69
2022-08-28T12:01:39.164Z,18.57
2022-08-28T12:04:12.210Z,18.73
2022-08-28T12:06:54.462Z,18.78
2022-08-28T12:09:42.636Z,18.99
2022-08-28T12:12:52.452Z,19.03
2022-08-28T12:15:41.473Z,19.08
2022-08-28T12:18:16.945Z,18.80
2022-08-28T12:21:03.840Z,19.33
2022-08-28T12:23:45.587Z,18.86
2022-08-28T12:26:23.388Z,18.97
2022-08-28T12:28:54.938Z,19.13
2022-08-28T12:32:00.284Z,18.97
2022-08-28T12:34:39.315Z,18.45
2022-08-28T12:37:28.754Z,18.62
2022-08-28T12:39:58.795Z,18.90
2022-08-28T12:42:32.334Z,19.05
2022-08-28T12:45:03.308Z,19.36
2022-08-28T12:47:31.207Z,19.31
2022-08-28T12:49:58.716Z,19.01
2022-08-28T12:52:27.533Z,19.13
2022-08-28T12:54:56.358Z,19.36
2022-08-28T12:57:25.992Z,19.23
2022-08-28T12:59:54.848Z,19.04
2022-08-28T13:02:27.609Z,19.43
2022-08-28T13:04:58.122Z,19.53
2022-08-28T13:07:30.934Z,19.69
2022-08-28T13:10:03.354Z,19.64
2022-08-28T13:12:56.016Z,19.30
2022-08-28T13:16:00.734Z,19.71
2022-08-28T13:18:36.292Z,19.84
2022-08-28T13:21:37.103Z,19.49
2022-08-28T13:24:29.335Z,19.71
2022-08-28T13:27:03.188Z,19.77
2022-08-28T13:29:31.358Z,20.23
2022-08-28T13:32:01.334Z,19.83
2022-08-28T13:34:30.968Z,20.28
2022-08-28T13:37:01.184Z,19.93
2022-08-28T13:39:32.615Z,20.20
2022-08-28T13:42:06.062Z,20.06
2022-08-28T13:44:36.658Z,20.44
2022-08-28T13:47:07.613Z,20.15
2022-08-28T13:49:35.493Z,20.63
2022-08-28T13:52:06.383Z,20.31
2022-08-28T13:54:36.630Z,20.34
2022-08-28T13:57:04.882Z,20.33
2022-08-28T13:59:33.038Z,20.44
2022-08-28T14:02:21.531Z,20.61
2022-08-28T14:04:48.988Z,21.14
2022-08-28T14:07:17.015Z,20.62
2022-08-28T14:09:45.906Z,21.05
2022-08-28T14:12:14.739Z,20.87
2022-08-28T14:14:42.293Z,20.87
2022-08-28T14:17:10.879Z,20.96
2022-08-28T14:19:38.631Z,20.70
2022-08-28T14:22:06.220Z,21.00
2022-08-28T14:24:33.728Z,20.93
2022-08-28T14:27:02.590Z,20.49
2022-08-28T14:29:31.332Z,20.98
2022-08-28T14:32:01.653Z,21.26
2022-08-28T14:34:29.299Z,21.41
2022-08-28T14:36:56.763Z,21.63
2022-08-28T14:39:26.459Z,21.29
2022-08-28T14:41:54.703Z,21.75
2022-08-28T14:44:25.107Z,21.35
2022-08-28T14:46:57.009Z,21.33
2022-08-28T14:49:26.347Z,21.35
2022-08-28T14:51:54.929Z,21.48
2022-08-28T14:54:24.339Z,21.13
2022-08-28T14:56:52.975Z,21.13
2022-08-28T14:59:24.798Z,21.36
2022-08-28T15:01:53.498Z,21.99
2022-08-28T15:04:23.877Z,22.34
2022-08-28T15:06:55.778Z,22.24
2022-08-28T15:09:23.239Z,21.91
2022-08-28T15:11:50.773Z,21.70
2022-08-28T15:14:18.230Z,22.28
2022-08-28T15:16:49.031Z,21.89
2022-08-28T15:19:18.177Z,21.73
2022-08-28T15:21:48.030Z,22.02
2022-08-28T15:24:16.763Z,21.41
2022-08-28T15:26:44.842Z,21.80
2022-08-28T15:29:12.592Z,22.22
2022-08-28T15:31:43.062Z,21.55
2022-08-28T15:34:14.326Z,21.53
2022-08-28T15:36:42.652Z,21.50
2022-08-28T15:39:28.303Z,21.25
2022-08-28T15:41:56.552Z,21.05
2022-08-28T15:44:24.058Z,20.99
2022-08-28T15:46:53.773Z,20.96
2022-08-28T15:49:24.150Z,21.22
2022-08-28T15:51:52.034Z,21.14
2022-08-28T15:54:20.225Z,21.69
2022-08-28T15:56:48.013Z,21.44
2022-08-28T15:59:18.787Z,21.60
2022-08-28T16:01:46.591Z,21.62
2022-08-28T16:04:14.976Z,21.36
2022-08-28T16:06:43.835Z,21.39
2022-08-28T16:09:11.806Z,21.15
2022-08-28T16:11:40.866Z,21.23
2022-08-28T16:14:08.318Z,21.77
2022-08-28T16:16:35.800Z,21.37
2022-08-28T16:19:04.377Z,21.11
2022-08-28T16:21:32.135Z,21.15
2022-08-28T16:24:01.145Z,20.74
2022-08-28T16:26:30.022Z,21.29
2022-08-28T16:28:57.712Z,21.42
2022-08-28T16:31:26.519Z,21.24
2022-08-28T16:33:54.029Z,21.65
2022-08-28T16:36:23.953Z,21.54
2022-08-28T16:38:52.905Z,21.52
2022-08-28T16:41:29.695Z,21.52
2022-08-28T16:43:59.852Z,20.93
2022-08-28T16:46:28.221Z,20.51
2022-08-28T16:48:56.057Z,20.68
2022-08-28T16:51:26.741Z,20.41
2022-08-28T16:53:54.391Z,20.33
2022-08-28T16:56:23.530Z,20.38
2022-08-28T16:58:53.238Z,20.88
2022-08-28T17:01:23.942Z,19.99
2022-08-28T17:03:52.436Z,20.24
2022-08-28T17:06:23.232Z,20.83
2022-08-28T17:08:55.866Z,20.26
2022-08-28T17:11:25.097Z,20.37
2022-08-28T17:13:54.242Z,20.38
2022-08-28T17:16:23.508Z,20.02
2022-08-28T17:18:52.280Z,20.03
2022-08-28T17:21:37.922Z,20.05
2022-08-28T17:24:06.662Z,20.35
2022-08-28T17:26:34.212Z,20.11
2022-08-28T17:29:03.427Z,19.78
2022-08-28T17:31:31.177Z,19.99
2022-08-28T17:33:58.774Z,19.44
2022-08-28T17:36:33.559Z,19.43
2022-08-28T17:39:02.831Z,20.02
2022-08-28T17:41:30.336Z,20.12
2022-08-28T17:43:58.160Z,20.22
2022-08-28T17:46:27.103Z,19.41
2022-08-28T17:48:56.036Z,19.28
2022-08-28T17:51:36.898Z,18.84
2022-08-28T17:54:10.726Z,18.48
2022-08-28T17:56:38.251Z,18.50
2022-08-28T17:59:05.725Z,18.31
2022-08-28T18:01:34.573Z,18.14
2022-08-28T18:04:02.186Z,17.96
2022-08-28T18:06:29.636Z,17.91
2022-08-28T18:08:57.084Z,17.66
2022-08-28T18:11:24.536Z,17.62
2022-08-28T18:13:51.978Z,17.48
2022-08-28T18:16:19.907Z,17.36
2022-08-28T18:18:48.832Z,17.25
2022-08-28T18:21:16.338Z,17.15
2022-08-28T18:23:43.830Z,17.21
2022-08-28T18:26:11.316Z,17.05
2022-08-28T18:28:39.227Z,17.03
2022-08-28T18:31:08.110Z,16.98
2022-08-28T18:33:37.034Z,16.82
2022-08-28T18:36:07.876Z,16.69
2022-08-28T18:38:35.793Z,16.73
2022-08-28T18:41:04.699Z,16.72
2022-08-28T18:43:32.831Z,16.65
2022-08-28T18:46:00.517Z,16.54
2022-08-28T18:48:28.679Z,16.45
2022-08-28T18:50:56.132Z,16.43
2022-08-28T18:53:25.322Z,16.24
2022-08-28T18:55:54.956Z,16.30
2022-08-28T18:58:23.370Z,16.23
2022-08-28T19:00:51.295Z,16.14
2022-08-28T19:03:19.029Z,16.04
2022-08-28T19:05:46.664Z,16.02
2022-08-28T19:08:14.984Z,15.95
2022-08-28T19:10:44.344Z,15.90
2022-08-28T19:13:11.800Z,15.90
2022-08-28T19:15:39.644Z,15.85
2022-08-28T19:18:07.680Z,15.76
2022-08-28T19:20:35.836Z,15.71
2022-08-28T19:23:03.354Z,15.66
2022-08-28T19:25:31.279Z,15.58
2022-08-28T19:28:01.974Z,15.61
2022-08-28T19:30:32.784Z,15.54
2022-08-28T19:33:01.167Z,15.50
2022-08-28T19:35:28.714Z,15.58
2022-08-28T19:37:56.288Z,15.38
2022-08-28T19:40:24.193Z,15.43
2022-08-28T19:42:51.840Z,15.33
2022-08-28T19:45:21.628Z,15.45
2022-08-28T19:47:49.189Z,15.29
2022-08-28T19:50:17.058Z,15.31
2022-08-28T19:52:44.812Z,15.09
2022-08-28T19:55:17.294Z,15.10
2022-08-28T19:57:46.084Z,15.11
2022-08-28T20:00:14.978Z,15.10
2022-08-28T20:02:44.241Z,14.98
2022-08-28T20:05:12.345Z,14.90
2022-08-28T20:07:39.850Z,14.92
2022-08-28T20:10:08.272Z,14.90
2022-08-28T20:12:38.450Z,14.95
2022-08-28T20:15:07.378Z,14.94
2022-08-28T20:17:35.314Z,14.87
2022-08-28T20:20:13.277Z,14.67
2022-08-28T20:22:40.849Z,14.70
2022-08-28T20:25:09.516Z,14.77
2022-08-28T20:27:37.338Z,14.64
2022-08-28T20:30:10.587Z,14.65
2022-08-28T20:32:40.866Z,14.55
2022-08-28T20:35:10.979Z,14.60
2022-08-28T20:37:44.903Z,14.34
2022-08-28T20:40:14.698Z,14.46
2022-08-28T20:42:42.269Z,14.40
2022-08-28T20:45:10.362Z,14.34
2022-08-28T20:47:37.925Z,14.26
2022-08-28T20:50:06.445Z,14.21
2022-08-28T20:52:34.262Z,14.19
2022-08-28T20:55:03.385Z,14.16
2022-08-28T20:57:30.900Z,14.10
2022-08-28T21:00:02.155Z,13.93
2022-08-28T21:02:32.728Z,13.92
2022-08-28T21:05:00.388Z,13.89
2022-08-28T21:07:28.398Z,13.96
2022-08-28T21:10:04.920Z,13.91
2022-08-28T21:12:35.701Z,13.92
2022-08-28T21:15:03.500Z,13.87
2022-08-28T21:17:31.179Z,13.86
2022-08-28T21:20:01.000Z,13.87
2022-08-28T21:22:29.897Z,13.74
2022-08-28T21:24:57.358Z,13.66
2022-08-28T21:27:25.529Z,13.65
2022-08-28T21:29:58.169Z,13.62
2022-08-28T21:32:25.876Z,13.75
2022-08-28T21:34:54.412Z,13.69
2022-08-28T21:37:22.066Z,13.65
2022-08-28T21:39:49.582Z,13.68
2022-08-28T21:42:17.094Z,13.66
2022-08-28T21:44:51.298Z,13.33
2022-08-28T21:47:21.211Z,13.24
2022-08-28T21:49:48.929Z,13.16
2022-08-28T21:52:16.497Z,13.09
2022-08-28T21:54:43.939Z,13.12
2022-08-28T21:57:11.408Z,13.08
2022-08-28T21:59:38.884Z,13.01
2022-08-28T22:02:06.587Z,13.01
2022-08-28T22:04:35.692Z,13.20
2022-08-28T22:07:03.150Z,13.09
2022-08-28T22:09:30.598Z,13.18
2022-08-28T22:11:58.192Z,13.04
2022-08-28T22:14:26.006Z,12.80
2022-08-28T22:16:53.458Z,12.87
2022-08-28T22:19:20.985Z,12.73
2022-08-28T22:22:07.495Z,12.59
2022-08-28T22:24:36.472Z,12.50
2022-08-28T22:27:04.675Z,12.46
2022-08-28T22:29:36.364Z,12.50
2022-08-28T22:32:04.392Z,12.47
2022-08-28T22:34:32.120Z,12.38
2022-08-28T22:37:00.906Z,12.33
2022-08-28T22:39:28.387Z,12.35
2022-08-28T22:41:55.858Z,12.21
2022-08-28T22:44:23.334Z,12.23
2022-08-28T22:46:50.857Z,12.20
2022-08-28T22:49:18.339Z,12.17
2022-08-28T22:51:45.814Z,12.16
2022-08-28T22:54:14.653Z,12.09
2022-08-28T22:56:42.118Z,12.08
2022-08-28T22:59:09.982Z,12.10
2022-08-28T23:01:37.649Z,12.02
2022-08-28T23:04:05.568Z,11.93
2022-08-28T23:06:33.313Z,11.93
2022-08-28T23:09:01.168Z,11.84
2022-08-28T23:11:30.098Z,11.75
2022-08-28T23:13:57.553Z,11.72
2022-08-28T23:16:25.190Z,11.63
2022-08-28T23:19:09.239Z,11.61
2022-08-28T23:21:44.017Z,11.63
2022-08-28T23:24:13.177Z,11.58
2022-08-28T23:26:42.092Z,11.59
2022-08-28T23:29:09.965Z,11.43
2022-08-28T23:31:38.204Z,11.38
2022-08-28T23:34:06.222Z,11.40
2022-08-28T23:36:35.567Z,11.39
2022-08-28T23:39:04.281Z,11.29
2022-08-28T23:41:31.886Z,11.26
2022-08-28T23:44:05.251Z,11.22
2022-08-28T23:46:36.444Z,11.19
2022-08-28T23:49:04.347Z,11.06
2022-08-28T23:51:32.454Z,11.03
2022-08-28T23:53:59.922Z,10.97
2022-08-28T23:56:28.051Z,10.86
2022-08-28T23:58:55.946Z,10.84
